sensor_id;sensor_type;location;lat;lon;timestamp;P1;durP1;ratioP1;P2;durP2;ratioP2
22634;SDS011;11484;50.858;4.384;2023-05-24T00:00:13;7.60;;;2.08;;
22634;SDS011;11484;50.858;4.384;2023-05-24T00:02:40;10.77;;;2.40;;
22634;SDS011;11484;50.858;4.384;2023-05-24T00:05:07;6.47;;;1.88;;
22634;SDS011;11484;50.858;4.384;2023-05-24T00:07:34;6.47;;;2.10;;
22634;SDS011;11484;50.858;4.384;2023-05-24T00:10:02;10.57;;;2.63;;
22634;SDS011;11484;50.858;4.384;2023-05-24T00:12:28;10.65;;;2.38;;
22634;SDS011;11484;50.858;4.384;2023-05-24T00:14:54;8.05;;;2.35;;
22634;SDS011;11484;50.858;4.384;2023-05-24T00:17:20;9.95;;;2.25;;
22634;SDS011;11484;50.858;4.384;2023-05-24T00:19:46;7.78;;;1.67;;
22634;SDS011;11484;50.858;4.384;2023-05-24T00:22:12;7.55;;;2.53;;
22634;SDS011;11484;50.858;4.384;2023-05-24T00:24:38;7.82;;;2.03;;
22634;SDS011;11484;50.858;4.384;2023-05-24T00:27:04;9.18;;;2.20;;
22634;SDS011;11484;50.858;4.384;2023-05-24T00:29:31;10.00;;;2.33;;
22634;SDS011;11484;50.858;4.384;2023-05-24T00:31:56;7.82;;;2.38;;
22634;SDS011;11484;50.858;4.384;2023-05-24T00:34:22;11.73;;;3.00;;
22634;SDS011;11484;50.858;4.384;2023-05-24T00:36:48;9.30;;;2.03;;
22634;SDS011;11484;50.858;4.384;2023-05-24T00:39:13;8.70;;;2.15;;
22634;SDS011;11484;50.858;4.384;2023-05-24T00:41:39;8.07;;;2.33;;
22634;SDS011;11484;50.858;4.384;2023-05-24T00:44:05;11.93;;;3.20;;
22634;SDS011;11484;50.858;4.384;2023-05-24T00:46:31;14.98;;;2.70;;
22634;SDS011;11484;50.858;4.384;2023-05-24T00:48:57;9.90;;;1.88;;
22634;SDS011;11484;50.858;4.384;2023-05-24T00:51:24;14.68;;;2.78;;
22634;SDS011;11484;50.858;4.384;2023-05-24T00:53:52;10.55;;;2.70;;
22634;SDS011;11484;50.858;4.384;2023-05-24T00:56:18;9.15;;;2.95;;
22634;SDS011;11484;50.858;4.384;2023-05-24T00:58:45;8.35;;;2.47;;
22634;SDS011;11484;50.858;4.384;2023-05-24T01:01:11;14.05;;;2.10;;
22634;SDS011;11484;50.858;4.384;2023-05-24T01:03:38;8.30;;;2.38;;
22634;SDS011;11484;50.858;4.384;2023-05-24T01:06:05;11.82;;;2.40;;
22634;SDS011;11484;50.858;4.384;2023-05-24T01:14:28;7.28;;;2.60;;
22634;SDS011;11484;50.858;4.384;2023-05-24T01:19:49;11.52;;;2.95;;
22634;SDS011;11484;50.858;4.384;2023-05-24T01:24:58;12.70;;;2.90;;
22634;SDS011;11484;50.858;4.384;2023-05-24T01:27:32;11.57;;;2.97;;
22634;SDS011;11484;50.858;4.384;2023-05-24T01:30:00;9.35;;;2.80;;
22634;SDS011;11484;50.858;4.384;2023-05-24T01:32:28;12.48;;;3.10;;
22634;SDS011;11484;50.858;4.384;2023-05-24T01:34:54;8.38;;;2.40;;
22634;SDS011;11484;50.858;4.384;2023-05-24T01:37:20;16.23;;;3.75;;
22634;SDS011;11484;50.858;4.384;2023-05-24T01:39:46;11.55;;;3.05;;
22634;SDS011;11484;50.858;4.384;2023-05-24T01:45:04;9.48;;;2.63;;
22634;SDS011;11484;50.858;4.384;2023-05-24T01:50:38;12.30;;;3.28;;
22634;SDS011;11484;50.858;4.384;2023-05-24T01:53:12;14.15;;;4.07;;
22634;SDS011;11484;50.858;4.384;2023-05-24T01:55:42;18.10;;;3.17;;
22634;SDS011;11484;50.858;4.384;2023-05-24T01:58:11;10.82;;;2.60;;
22634;SDS011;11484;50.858;4.384;2023-05-24T02:00:38;9.02;;;3.00;;
22634;SDS011;11484;50.858;4.384;2023-05-24T02:03:05;12.13;;;3.70;;
22634;SDS011;11484;50.858;4.384;2023-05-24T02:05:31;11.68;;;3.03;;
22634;SDS011;11484;50.858;4.384;2023-05-24T02:07:57;10.18;;;3.08;;
22634;SDS011;11484;50.858;4.384;2023-05-24T02:10:23;16.08;;;3.25;;
22634;SDS011;11484;50.858;4.384;2023-05-24T02:12:49;12.57;;;2.78;;
22634;SDS011;11484;50.858;4.384;2023-05-24T02:15:15;8.27;;;2.70;;
22634;SDS011;11484;50.858;4.384;2023-05-24T02:17:41;8.85;;;3.13;;
22634;SDS011;11484;50.858;4.384;2023-05-24T02:20:07;10.32;;;2.65;;
22634;SDS011;11484;50.858;4.384;2023-05-24T02:22:34;11.52;;;3.42;;
22634;SDS011;11484;50.858;4.384;2023-05-24T02:24:59;12.25;;;3.15;;
22634;SDS011;11484;50.858;4.384;2023-05-24T02:27:25;9.35;;;2.92;;
22634;SDS011;11484;50.858;4.384;2023-05-24T02:29:51;12.05;;;2.97;;
22634;SDS011;11484;50.858;4.384;2023-05-24T02:32:16;12.30;;;3.30;;
22634;SDS011;11484;50.858;4.384;2023-05-24T02:34:42;11.23;;;3.42;;
22634;SDS011;11484;50.858;4.384;2023-05-24T02:37:09;11.43;;;3.63;;
22634;SDS011;11484;50.858;4.384;2023-05-24T02:39:39;11.25;;;3.30;;
22634;SDS011;11484;50.858;4.384;2023-05-24T02:42:05;11.80;;;3.00;;
22634;SDS011;11484;50.858;4.384;2023-05-24T02:44:32;12.48;;;3.05;;
22634;SDS011;11484;50.858;4.384;2023-05-24T02:46:58;9.98;;;3.05;;
22634;SDS011;11484;50.858;4.384;2023-05-24T02:49:24;12.88;;;3.05;;
22634;SDS011;11484;50.858;4.384;2023-05-24T02:51:50;12.32;;;3.35;;
22634;SDS011;11484;50.858;4.384;2023-05-24T02:54:15;9.65;;;3.33;;
22634;SDS011;11484;50.858;4.384;2023-05-24T02:56:42;13.23;;;3.38;;
22634;SDS011;11484;50.858;4.384;2023-05-24T02:59:08;11.05;;;3.40;;
22634;SDS011;11484;50.858;4.384;2023-05-24T03:01:35;14.07;;;3.75;;
22634;SDS011;11484;50.858;4.384;2023-05-24T03:04:01;12.88;;;3.50;;
22634;SDS011;11484;50.858;4.384;2023-05-24T03:06:27;6.50;;;2.88;;
22634;SDS011;11484;50.858;4.384;2023-05-24T03:08:53;14.82;;;3.58;;
22634;SDS011;11484;50.858;4.384;2023-05-24T03:11:19;8.73;;;3.50;;
22634;SDS011;11484;50.858;4.384;2023-05-24T03:13:46;8.23;;;2.95;;
22634;SDS011;11484;50.858;4.384;2023-05-24T03:16:13;13.70;;;3.33;;
22634;SDS011;11484;50.858;4.384;2023-05-24T03:18:39;13.05;;;3.20;;
22634;SDS011;11484;50.858;4.384;2023-05-24T03:21:06;13.57;;;3.38;;
22634;SDS011;11484;50.858;4.384;2023-05-24T03:23:32;14.35;;;3.35;;
22634;SDS011;11484;50.858;4.384;2023-05-24T03:25:59;10.30;;;3.15;;
22634;SDS011;11484;50.858;4.384;2023-05-24T03:28:26;13.55;;;3.60;;
22634;SDS011;11484;50.858;4.384;2023-05-24T03:30:52;14.25;;;3.85;;
22634;SDS011;11484;50.858;4.384;2023-05-24T03:33:18;10.60;;;3.75;;
22634;SDS011;11484;50.858;4.384;2023-05-24T03:35:44;10.90;;;3.53;;
22634;SDS011;11484;50.858;4.384;2023-05-24T03:38:10;13.40;;;3.47;;
22634;SDS011;11484;50.858;4.384;2023-05-24T03:40:37;15.88;;;4.25;;
22634;SDS011;11484;50.858;4.384;2023-05-24T03:43:05;13.05;;;3.45;;
22634;SDS011;11484;50.858;4.384;2023-05-24T03:45:32;16.85;;;4.50;;
22634;SDS011;11484;50.858;4.384;2023-05-24T03:47:59;14.18;;;3.50;;
22634;SDS011;11484;50.858;4.384;2023-05-24T03:50:25;10.48;;;3.25;;
22634;SDS011;11484;50.858;4.384;2023-05-24T03:52:52;10.23;;;3.25;;
22634;SDS011;11484;50.858;4.384;2023-05-24T03:55:19;11.10;;;4.15;;
22634;SDS011;11484;50.858;4.384;2023-05-24T03:57:45;11.75;;;3.75;;
22634;SDS011;11484;50.858;4.384;2023-05-24T04:00:12;14.15;;;3.35;;
22634;SDS011;11484;50.858;4.384;2023-05-24T04:02:38;15.80;;;4.20;;
22634;SDS011;11484;50.858;4.384;2023-05-24T04:05:04;13.05;;;3.92;;
22634;SDS011;11484;50.858;4.384;2023-05-24T04:07:35;18.33;;;3.83;;
22634;SDS011;11484;50.858;4.384;2023-05-24T04:10:04;11.75;;;3.58;;
22634;SDS011;11484;50.858;4.384;2023-05-24T04:12:37;20.60;;;3.95;;
22634;SDS011;11484;50.858;4.384;2023-05-24T04:15:05;12.07;;;3.10;;
22634;SDS011;11484;50.858;4.384;2023-05-24T04:17:31;13.05;;;3.47;;
22634;SDS011;11484;50.858;4.384;2023-05-24T04:19:58;8.13;;;3.20;;
22634;SDS011;11484;50.858;4.384;2023-05-24T04:22:25;14.05;;;3.75;;
22634;SDS011;11484;50.858;4.384;2023-05-24T04:24:51;14.75;;;3.33;;
22634;SDS011;11484;50.858;4.384;2023-05-24T04:27:17;7.97;;;2.97;;
22634;SDS011;11484;50.858;4.384;2023-05-24T04:29:43;15.05;;;4.15;;
22634;SDS011;11484;50.858;4.384;2023-05-24T04:32:10;9.35;;;3.38;;
22634;SDS011;11484;50.858;4.384;2023-05-24T04:34:38;8.48;;;3.10;;
22634;SDS011;11484;50.858;4.384;2023-05-24T04:37:06;10.38;;;3.65;;
22634;SDS011;11484;50.858;4.384;2023-05-24T04:39:32;11.02;;;3.55;;
22634;SDS011;11484;50.858;4.384;2023-05-24T04:41:58;13.60;;;3.72;;
22634;SDS011;11484;50.858;4.384;2023-05-24T04:44:24;17.23;;;3.67;;
22634;SDS011;11484;50.858;4.384;2023-05-24T04:46:51;12.73;;;4.43;;
22634;SDS011;11484;50.858;4.384;2023-05-24T04:49:17;8.15;;;3.42;;
22634;SDS011;11484;50.858;4.384;2023-05-24T04:51:43;15.23;;;5.25;;
22634;SDS011;11484;50.858;4.384;2023-05-24T04:54:10;15.30;;;3.80;;
22634;SDS011;11484;50.858;4.384;2023-05-24T04:56:36;14.90;;;3.92;;
22634;SDS011;11484;50.858;4.384;2023-05-24T04:59:05;9.27;;;3.22;;
22634;SDS011;11484;50.858;4.384;2023-05-24T05:01:31;7.75;;;3.53;;
22634;SDS011;11484;50.858;4.384;2023-05-24T05:03:58;14.18;;;4.28;;
22634;SDS011;11484;50.858;4.384;2023-05-24T05:06:24;14.32;;;3.95;;
22634;SDS011;11484;50.858;4.384;2023-05-24T05:08:50;14.52;;;4.40;;
22634;SDS011;11484;50.858;4.384;2023-05-24T05:11:16;16.58;;;4.95;;
22634;SDS011;11484;50.858;4.384;2023-05-24T05:13:43;17.80;;;4.20;;
22634;SDS011;11484;50.858;4.384;2023-05-24T05:16:09;14.68;;;4.45;;
22634;SDS011;11484;50.858;4.384;2023-05-24T05:18:34;12.02;;;4.13;;
22634;SDS011;11484;50.858;4.384;2023-05-24T05:21:01;15.82;;;4.05;;
22634;SDS011;11484;50.858;4.384;2023-05-24T05:23:27;12.43;;;3.80;;
22634;SDS011;11484;50.858;4.384;2023-05-24T05:25:56;13.25;;;4.32;;
22634;SDS011;11484;50.858;4.384;2023-05-24T05:28:23;10.18;;;3.88;;
22634;SDS011;11484;50.858;4.384;2023-05-24T05:30:48;11.82;;;3.95;;
22634;SDS011;11484;50.858;4.384;2023-05-24T05:33:14;12.52;;;4.00;;
22634;SDS011;11484;50.858;4.384;2023-05-24T05:35:40;13.75;;;4.03;;
22634;SDS011;11484;50.858;4.384;2023-05-24T05:38:06;14.32;;;3.70;;
22634;SDS011;11484;50.858;4.384;2023-05-24T05:40:31;11.23;;;3.88;;
22634;SDS011;11484;50.858;4.384;2023-05-24T05:42:57;13.85;;;3.80;;
22634;SDS011;11484;50.858;4.384;2023-05-24T05:45:23;15.20;;;4.30;;
22634;SDS011;11484;50.858;4.384;2023-05-24T05:47:48;15.00;;;3.88;;
22634;SDS011;11484;50.858;4.384;2023-05-24T05:50:15;12.80;;;4.03;;
22634;SDS011;11484;50.858;4.384;2023-05-24T05:52:40;10.15;;;3.47;;
22634;SDS011;11484;50.858;4.384;2023-05-24T05:55:07;12.98;;;4.18;;
22634;SDS011;11484;50.858;4.384;2023-05-24T05:57:33;12.15;;;4.25;;
22634;SDS011;11484;50.858;4.384;2023-05-24T05:59:59;14.60;;;3.80;;
22634;SDS011;11484;50.858;4.384;2023-05-24T06:02:25;11.88;;;3.53;;
22634;SDS011;11484;50.858;4.384;2023-05-24T06:04:51;12.48;;;3.30;;
22634;SDS011;11484;50.858;4.384;2023-05-24T06:07:16;10.57;;;4.50;;
22634;SDS011;11484;50.858;4.384;2023-05-24T06:09:42;14.02;;;3.20;;
22634;SDS011;11484;50.858;4.384;2023-05-24T06:12:08;8.50;;;3.03;;
22634;SDS011;11484;50.858;4.384;2023-05-24T06:14:34;16.35;;;3.67;;
22634;SDS011;11484;50.858;4.384;2023-05-24T06:17:02;9.40;;;3.30;;
22634;SDS011;11484;50.858;4.384;2023-05-24T06:19:29;12.00;;;3.10;;
22634;SDS011;11484;50.858;4.384;2023-05-24T06:21:56;10.15;;;3.20;;
22634;SDS011;11484;50.858;4.384;2023-05-24T06:24:22;12.00;;;3.05;;
22634;SDS011;11484;50.858;4.384;2023-05-24T06:26:50;16.00;;;4.00;;
22634;SDS011;11484;50.858;4.384;2023-05-24T06:29:17;11.65;;;3.45;;
22634;SDS011;11484;50.858;4.384;2023-05-24T06:31:46;13.17;;;3.37;;
22634;SDS011;11484;50.858;4.384;2023-05-24T06:34:13;11.32;;;2.90;;
22634;SDS011;11484;50.858;4.384;2023-05-24T06:36:43;10.68;;;2.50;;
22634;SDS011;11484;50.858;4.384;2023-05-24T06:39:14;14.27;;;2.92;;
22634;SDS011;11484;50.858;4.384;2023-05-24T06:41:40;9.15;;;2.70;;
22634;SDS011;11484;50.858;4.384;2023-05-24T06:44:10;9.02;;;2.65;;
22634;SDS011;11484;50.858;4.384;2023-05-24T06:46:35;7.63;;;2.55;;
22634;SDS011;11484;50.858;4.384;2023-05-24T06:49:01;8.52;;;2.30;;
22634;SDS011;11484;50.858;4.384;2023-05-24T06:51:27;10.52;;;2.63;;
22634;SDS011;11484;50.858;4.384;2023-05-24T06:53:53;11.63;;;2.20;;
22634;SDS011;11484;50.858;4.384;2023-05-24T06:56:19;8.98;;;1.85;;
22634;SDS011;11484;50.858;4.384;2023-05-24T06:58:45;9.05;;;2.10;;
22634;SDS011;11484;50.858;4.384;2023-05-24T07:01:11;10.68;;;2.45;;
22634;SDS011;11484;50.858;4.384;2023-05-24T07:03:38;9.68;;;2.80;;
22634;SDS011;11484;50.858;4.384;2023-05-24T07:06:04;9.27;;;2.15;;
22634;SDS011;11484;50.858;4.384;2023-05-24T07:08:29;11.68;;;2.30;;
22634;SDS011;11484;50.858;4.384;2023-05-24T07:10:55;9.98;;;1.90;;
22634;SDS011;11484;50.858;4.384;2023-05-24T07:13:21;10.63;;;2.45;;
22634;SDS011;11484;50.858;4.384;2023-05-24T07:15:47;5.95;;;2.15;;
22634;SDS011;11484;50.858;4.384;2023-05-24T07:18:13;8.32;;;1.80;;
22634;SDS011;11484;50.858;4.384;2023-05-24T07:20:39;8.07;;;2.03;;
22634;SDS011;11484;50.858;4.384;2023-05-24T07:23:05;10.32;;;3.13;;
22634;SDS011;11484;50.858;4.384;2023-05-24T07:25:31;7.18;;;2.20;;
22634;SDS011;11484;50.858;4.384;2023-05-24T07:27:57;14.18;;;3.42;;
22634;SDS011;11484;50.858;4.384;2023-05-24T07:30:24;11.50;;;2.80;;
22634;SDS011;11484;50.858;4.384;2023-05-24T07:32:51;11.82;;;3.50;;
22634;SDS011;11484;50.858;4.384;2023-05-24T07:35:17;8.00;;;2.53;;
22634;SDS011;11484;50.858;4.384;2023-05-24T07:37:42;13.13;;;3.15;;
22634;SDS011;11484;50.858;4.384;2023-05-24T07:40:08;9.90;;;2.97;;
22634;SDS011;11484;50.858;4.384;2023-05-24T07:42:37;10.07;;;3.03;;
22634;SDS011;11484;50.858;4.384;2023-05-24T07:45:04;9.43;;;2.58;;
22634;SDS011;11484;50.858;4.384;2023-05-24T07:47:31;7.47;;;2.40;;
22634;SDS011;11484;50.858;4.384;2023-05-24T07:49:56;9.02;;;2.70;;
22634;SDS011;11484;50.858;4.384;2023-05-24T07:52:22;9.25;;;2.88;;
22634;SDS011;11484;50.858;4.384;2023-05-24T07:54:48;14.07;;;2.95;;
22634;SDS011;11484;50.858;4.384;2023-05-24T07:57:14;17.23;;;7.38;;
22634;SDS011;11484;50.858;4.384;2023-05-24T07:59:39;14.15;;;3.17;;
22634;SDS011;11484;50.858;4.384;2023-05-24T08:02:05;10.35;;;2.90;;
22634;SDS011;11484;50.858;4.384;2023-05-24T08:04:35;12.30;;;2.55;;
22634;SDS011;11484;50.858;4.384;2023-05-24T08:07:01;8.50;;;2.50;;
22634;SDS011;11484;50.858;4.384;2023-05-24T08:09:27;11.15;;;2.85;;
22634;SDS011;11484;50.858;4.384;2023-05-24T08:11:54;8.40;;;2.78;;
22634;SDS011;11484;50.858;4.384;2023-05-24T08:14:21;7.50;;;2.30;;
22634;SDS011;11484;50.858;4.384;2023-05-24T08:16:47;5.53;;;2.15;;
22634;SDS011;11484;50.858;4.384;2023-05-24T08:19:13;5.45;;;2.10;;
22634;SDS011;11484;50.858;4.384;2023-05-24T08:21:39;8.82;;;2.00;;
22634;SDS011;11484;50.858;4.384;2023-05-24T08:24:06;9.88;;;2.40;;
22634;SDS011;11484;50.858;4.384;2023-05-24T08:26:32;10.18;;;2.65;;
22634;SDS011;11484;50.858;4.384;2023-05-24T08:28:58;10.27;;;2.70;;
22634;SDS011;11484;50.858;4.384;2023-05-24T08:31:24;10.88;;;3.28;;
22634;SDS011;11484;50.858;4.384;2023-05-24T08:33:50;8.35;;;2.30;;
22634;SDS011;11484;50.858;4.384;2023-05-24T08:36:16;9.20;;;2.50;;
22634;SDS011;11484;50.858;4.384;2023-05-24T08:38:42;8.40;;;2.88;;
22634;SDS011;11484;50.858;4.384;2023-05-24T08:41:09;7.82;;;3.20;;
22634;SDS011;11484;50.858;4.384;2023-05-24T08:43:37;10.52;;;3.75;;
22634;SDS011;11484;50.858;4.384;2023-05-24T08:46:03;8.70;;;3.50;;
22634;SDS011;11484;50.858;4.384;2023-05-24T08:48:30;9.02;;;3.50;;
22634;SDS011;11484;50.858;4.384;2023-05-24T08:50:56;7.55;;;3.45;;
22634;SDS011;11484;50.858;4.384;2023-05-24T08:53:22;12.15;;;4.50;;
22634;SDS011;11484;50.858;4.384;2023-05-24T08:55:49;8.45;;;4.40;;
22634;SDS011;11484;50.858;4.384;2023-05-24T08:58:21;9.40;;;4.05;;
22634;SDS011;11484;50.858;4.384;2023-05-24T09:00:47;8.27;;;3.30;;
22634;SDS011;11484;50.858;4.384;2023-05-24T09:03:12;10.07;;;3.15;;
22634;SDS011;11484;50.858;4.384;2023-05-24T09:05:38;9.32;;;3.63;;
22634;SDS011;11484;50.858;4.384;2023-05-24T09:08:05;9.43;;;3.60;;
22634;SDS011;11484;50.858;4.384;2023-05-24T09:10:32;11.45;;;4.03;;
22634;SDS011;11484;50.858;4.384;2023-05-24T09:12:59;10.75;;;4.03;;
22634;SDS011;11484;50.858;4.384;2023-05-24T09:15:27;11.85;;;4.05;;
22634;SDS011;11484;50.858;4.384;2023-05-24T09:17:53;12.63;;;4.43;;
22634;SDS011;11484;50.858;4.384;2023-05-24T09:20:19;7.93;;;3.92;;
22634;SDS011;11484;50.858;4.384;2023-05-24T09:22:49;13.48;;;3.70;;
22634;SDS011;11484;50.858;4.384;2023-05-24T09:25:17;13.93;;;4.55;;
22634;SDS011;11484;50.858;4.384;2023-05-24T09:27:50;16.33;;;5.53;;
22634;SDS011;11484;50.858;4.384;2023-05-24T09:30:17;12.30;;;4.50;;
22634;SDS011;11484;50.858;4.384;2023-05-24T09:32:53;15.57;;;5.70;;
22634;SDS011;11484;50.858;4.384;2023-05-24T09:35:23;16.33;;;5.40;;
22634;SDS011;11484;50.858;4.384;2023-05-24T09:37:52;14.25;;;6.13;;
22634;SDS011;11484;50.858;4.384;2023-05-24T09:40:21;14.75;;;5.65;;
22634;SDS011;11484;50.858;4.384;2023-05-24T09:42:48;11.68;;;5.55;;
22634;SDS011;11484;50.858;4.384;2023-05-24T09:45:26;13.43;;;6.07;;
22634;SDS011;11484;50.858;4.384;2023-05-24T09:47:52;15.38;;;6.63;;
22634;SDS011;11484;50.858;4.384;2023-05-24T09:50:18;18.95;;;6.85;;
22634;SDS011;11484;50.858;4.384;2023-05-24T09:52:44;18.38;;;7.65;;
22634;SDS011;11484;50.858;4.384;2023-05-24T09:55:28;15.32;;;7.00;;
22634;SDS011;11484;50.858;4.384;2023-05-24T09:58:12;21.60;;;7.18;;
22634;SDS011;11484;50.858;4.384;2023-05-24T10:00:38;15.25;;;7.25;;
22634;SDS011;11484;50.858;4.384;2023-05-24T10:03:08;13.45;;;7.55;;
22634;SDS011;11484;50.858;4.384;2023-05-24T10:05:35;11.90;;;7.13;;
22634;SDS011;11484;50.858;4.384;2023-05-24T10:08:02;16.05;;;7.10;;
22634;SDS011;11484;50.858;4.384;2023-05-24T10:10:32;15.38;;;7.80;;
22634;SDS011;11484;50.858;4.384;2023-05-24T10:12:59;18.90;;;8.30;;
22634;SDS011;11484;50.858;4.384;2023-05-24T10:15:25;11.63;;;7.18;;
22634;SDS011;11484;50.858;4.384;2023-05-24T10:17:52;16.35;;;7.32;;
22634;SDS011;11484;50.858;4.384;2023-05-24T10:20:18;13.48;;;7.65;;
22634;SDS011;11484;50.858;4.384;2023-05-24T10:22:45;13.20;;;7.10;;
22634;SDS011;11484;50.858;4.384;2023-05-24T10:25:22;14.07;;;7.40;;
22634;SDS011;11484;50.858;4.384;2023-05-24T10:27:53;12.38;;;6.65;;
22634;SDS011;11484;50.858;4.384;2023-05-24T10:30:24;12.40;;;6.13;;
22634;SDS011;11484;50.858;4.384;2023-05-24T10:32:54;15.18;;;6.22;;
22634;SDS011;11484;50.858;4.384;2023-05-24T10:35:21;13.95;;;6.68;;
22634;SDS011;11484;50.858;4.384;2023-05-24T10:37:48;9.07;;;5.20;;
22634;SDS011;11484;50.858;4.384;2023-05-24T10:40:17;11.55;;;4.88;;
22634;SDS011;11484;50.858;4.384;2023-05-24T10:42:45;12.65;;;5.07;;
22634;SDS011;11484;50.858;4.384;2023-05-24T10:47:49;10.35;;;5.35;;
22634;SDS011;11484;50.858;4.384;2023-05-24T10:50:16;13.07;;;5.30;;
22634;SDS011;11484;50.858;4.384;2023-05-24T10:52:43;8.77;;;4.65;;
22634;SDS011;11484;50.858;4.384;2023-05-24T10:55:09;10.30;;;4.07;;
22634;SDS011;11484;50.858;4.384;2023-05-24T10:57:36;11.45;;;3.80;;
22634;SDS011;11484;50.858;4.384;2023-05-24T11:02:49;9.77;;;3.97;;
22634;SDS011;11484;50.858;4.384;2023-05-24T11:05:23;9.90;;;4.25;;
22634;SDS011;11484;50.858;4.384;2023-05-24T11:07:48;12.63;;;3.75;;
22634;SDS011;11484;50.858;4.384;2023-05-24T11:10:28;9.00;;;4.25;;
22634;SDS011;11484;50.858;4.384;2023-05-24T11:12:59;9.73;;;4.47;;
22634;SDS011;11484;50.858;4.384;2023-05-24T11:15:25;11.35;;;3.92;;
22634;SDS011;11484;50.858;4.384;2023-05-24T11:18:33;9.93;;;3.92;;
22634;SDS011;11484;50.858;4.384;2023-05-24T11:20:44;8.23;;;3.53;;
22634;SDS011;11484;50.858;4.384;2023-05-24T11:23:10;9.48;;;3.55;;
22634;SDS011;11484;50.858;4.384;2023-05-24T11:25:38;8.40;;;2.80;;
22634;SDS011;11484;50.858;4.384;2023-05-24T11:28:07;7.63;;;3.05;;
22634;SDS011;11484;50.858;4.384;2023-05-24T11:30:39;9.18;;;2.90;;
22634;SDS011;11484;50.858;4.384;2023-05-24T11:35:51;10.02;;;3.55;;
22634;SDS011;11484;50.858;4.384;2023-05-24T11:38:18;7.22;;;3.10;;
22634;SDS011;11484;50.858;4.384;2023-05-24T11:40:47;11.40;;;3.80;;
22634;SDS011;11484;50.858;4.384;2023-05-24T11:43:19;6.63;;;3.83;;
22634;SDS011;11484;50.858;4.384;2023-05-24T11:45:48;8.77;;;3.28;;
22634;SDS011;11484;50.858;4.384;2023-05-24T11:48:15;10.57;;;3.30;;
22634;SDS011;11484;50.858;4.384;2023-05-24T11:50:43;11.52;;;3.60;;
22634;SDS011;11484;50.858;4.384;2023-05-24T11:53:13;11.00;;;3.80;;
22634;SDS011;11484;50.858;4.384;2023-05-24T11:55:46;6.75;;;3.40;;
22634;SDS011;11484;50.858;4.384;2023-05-24T12:00:49;8.93;;;3.40;;
22634;SDS011;11484;50.858;4.384;2023-05-24T12:03:15;9.27;;;3.20;;
22634;SDS011;11484;50.858;4.384;2023-05-24T12:05:41;8.52;;;3.03;;
22634;SDS011;11484;50.858;4.384;2023-05-24T12:08:08;6.75;;;3.47;;
22634;SDS011;11484;50.858;4.384;2023-05-24T12:10:38;11.60;;;3.80;;
22634;SDS011;11484;50.858;4.384;2023-05-24T12:13:05;9.50;;;3.50;;
22634;SDS011;11484;50.858;4.384;2023-05-24T12:15:43;7.53;;;3.30;;
22634;SDS011;11484;50.858;4.384;2023-05-24T12:18:18;11.85;;;3.55;;
22634;SDS011;11484;50.858;4.384;2023-05-24T12:20:45;9.00;;;3.30;;
22634;SDS011;11484;50.858;4.384;2023-05-24T12:23:13;5.50;;;3.55;;
22634;SDS011;11484;50.858;4.384;2023-05-24T12:25:39;10.27;;;3.70;;
22634;SDS011;11484;50.858;4.384;2023-05-24T12:28:05;9.95;;;3.28;;
22634;SDS011;11484;50.858;4.384;2023-05-24T12:30:30;7.70;;;3.22;;
22634;SDS011;11484;50.858;4.384;2023-05-24T12:32:56;11.38;;;2.88;;
22634;SDS011;11484;50.858;4.384;2023-05-24T12:35:22;6.18;;;3.38;;
22634;SDS011;11484;50.858;4.384;2023-05-24T12:37:48;7.70;;;3.97;;
22634;SDS011;11484;50.858;4.384;2023-05-24T12:40:17;10.27;;;3.65;;
22634;SDS011;11484;50.858;4.384;2023-05-24T12:42:54;14.10;;;3.70;;
22634;SDS011;11484;50.858;4.384;2023-05-24T12:45:27;9.75;;;5.60;;
22634;SDS011;11484;50.858;4.384;2023-05-24T12:47:53;9.73;;;3.20;;
22634;SDS011;11484;50.858;4.384;2023-05-24T12:50:22;7.38;;;3.30;;
22634;SDS011;11484;50.858;4.384;2023-05-24T12:52:49;12.85;;;3.72;;
22634;SDS011;11484;50.858;4.384;2023-05-24T12:55:21;6.15;;;3.30;;
22634;SDS011;11484;50.858;4.384;2023-05-24T12:57:49;7.90;;;3.90;;
22634;SDS011;11484;50.858;4.384;2023-05-24T13:00:17;11.05;;;4.70;;
22634;SDS011;11484;50.858;4.384;2023-05-24T13:02:48;11.90;;;4.85;;
22634;SDS011;11484;50.858;4.384;2023-05-24T13:05:16;9.15;;;3.53;;
22634;SDS011;11484;50.858;4.384;2023-05-24T13:07:43;10.77;;;3.80;;
22634;SDS011;11484;50.858;4.384;2023-05-24T13:10:10;8.75;;;3.25;;
22634;SDS011;11484;50.858;4.384;2023-05-24T13:12:36;8.82;;;3.33;;
22634;SDS011;11484;50.858;4.384;2023-05-24T13:15:03;11.15;;;3.63;;
22634;SDS011;11484;50.858;4.384;2023-05-24T13:17:29;9.25;;;3.63;;
22634;SDS011;11484;50.858;4.384;2023-05-24T13:19:55;8.75;;;3.42;;
22634;SDS011;11484;50.858;4.384;2023-05-24T13:22:22;11.55;;;3.40;;
22634;SDS011;11484;50.858;4.384;2023-05-24T13:24:48;5.72;;;2.95;;
22634;SDS011;11484;50.858;4.384;2023-05-24T13:27:14;6.95;;;2.78;;
22634;SDS011;11484;50.858;4.384;2023-05-24T13:29:39;5.53;;;2.95;;
22634;SDS011;11484;50.858;4.384;2023-05-24T13:32:05;8.15;;;2.70;;
22634;SDS011;11484;50.858;4.384;2023-05-24T13:34:31;9.88;;;3.08;;
22634;SDS011;11484;50.858;4.384;2023-05-24T13:36:57;7.55;;;3.25;;
22634;SDS011;11484;50.858;4.384;2023-05-24T13:39:26;13.10;;;5.18;;
22634;SDS011;11484;50.858;4.384;2023-05-24T13:41:52;7.60;;;3.00;;
22634;SDS011;11484;50.858;4.384;2023-05-24T13:44:18;8.18;;;3.03;;
22634;SDS011;11484;50.858;4.384;2023-05-24T13:46:44;9.00;;;3.13;;
22634;SDS011;11484;50.858;4.384;2023-05-24T13:49:11;8.25;;;3.20;;
22634;SDS011;11484;50.858;4.384;2023-05-24T13:51:37;4.88;;;2.65;;
22634;SDS011;11484;50.858;4.384;2023-05-24T13:54:03;10.98;;;3.90;;
22634;SDS011;11484;50.858;4.384;2023-05-24T13:56:31;8.88;;;3.30;;
22634;SDS011;11484;50.858;4.384;2023-05-24T13:58:58;13.02;;;4.05;;
22634;SDS011;11484;50.858;4.384;2023-05-24T14:01:26;8.55;;;3.35;;
22634;SDS011;11484;50.858;4.384;2023-05-24T14:03:53;8.52;;;4.05;;
22634;SDS011;11484;50.858;4.384;2023-05-24T14:06:19;11.65;;;4.00;;
22634;SDS011;11484;50.858;4.384;2023-05-24T14:08:45;9.63;;;3.22;;
22634;SDS011;11484;50.858;4.384;2023-05-24T14:11:12;8.95;;;3.33;;
22634;SDS011;11484;50.858;4.384;2023-05-24T14:13:41;11.32;;;3.58;;
22634;SDS011;11484;50.858;4.384;2023-05-24T14:16:08;10.65;;;3.38;;
22634;SDS011;11484;50.858;4.384;2023-05-24T14:18:34;8.63;;;3.20;;
22634;SDS011;11484;50.858;4.384;2023-05-24T14:21:00;7.05;;;3.63;;
22634;SDS011;11484;50.858;4.384;2023-05-24T14:23:27;9.85;;;3.75;;
22634;SDS011;11484;50.858;4.384;2023-05-24T14:25:55;9.63;;;3.45;;
22634;SDS011;11484;50.858;4.384;2023-05-24T14:28:21;8.57;;;3.45;;
22634;SDS011;11484;50.858;4.384;2023-05-24T14:30:47;9.55;;;3.78;;
22634;SDS011;11484;50.858;4.384;2023-05-24T14:33:13;8.88;;;3.70;;
22634;SDS011;11484;50.858;4.384;2023-05-24T14:35:39;7.55;;;3.50;;
22634;SDS011;11484;50.858;4.384;2023-05-24T14:38:06;12.10;;;3.92;;
22634;SDS011;11484;50.858;4.384;2023-05-24T14:40:36;8.30;;;3.80;;
22634;SDS011;11484;50.858;4.384;2023-05-24T14:43:06;10.27;;;3.17;;
22634;SDS011;11484;50.858;4.384;2023-05-24T14:45:34;9.95;;;3.13;;
22634;SDS011;11484;50.858;4.384;2023-05-24T14:48:02;10.48;;;3.80;;
22634;SDS011;11484;50.858;4.384;2023-05-24T14:50:29;10.10;;;3.35;;
22634;SDS011;11484;50.858;4.384;2023-05-24T14:52:55;10.73;;;3.33;;
22634;SDS011;11484;50.858;4.384;2023-05-24T14:55:21;9.70;;;3.45;;
22634;SDS011;11484;50.858;4.384;2023-05-24T14:57:47;6.85;;;2.80;;
22634;SDS011;11484;50.858;4.384;2023-05-24T15:00:13;8.68;;;3.08;;
22634;SDS011;11484;50.858;4.384;2023-05-24T15:02:39;9.40;;;3.10;;
22634;SDS011;11484;50.858;4.384;2023-05-24T15:05:05;10.05;;;4.05;;
22634;SDS011;11484;50.858;4.384;2023-05-24T15:07:32;13.98;;;4.45;;